Ponciano Arriaga International Airport
MMSP : now visible

Airfield :











YOU CAN JOIN US ON...

 
LOGIN :

Register | Disclaimer

   EN    FR    IT 

 









Legend :    VFR   Marginal VFR   IFR   Intensive IFR   Very Intensive IFR
Visi :
Ceiling :
>= 8 km
>= 3000ft
5 to 8 km
1000 to 3000 ft
1500m to 5 km
500 to 1000 ft
800 to 1500m
200 to 500 ft
< 800m
< 200 ft
Symbols :   Thunderstorms  Fog  Heavy snow  Heavy precipitations  Wind > 20 kt







- Airport Elevation : 6035 ft
- IATA code : SLP


MMSP - Ponciano Arriaga International

CURRENT METAR :
  • 220542Z 04006KT 10SM BKN020 13/09 A3030 RMK SLP138 52020 969 8/500

EXPIRED METARs :
  • 220442Z 10008KT 10SM SCT020 13/09 A3030 RMK 8/500
  • 220340Z 06008KT 10SM FEW025 13/08 A3028 RMK 8/500

TAF TAF MMSP
Valid from the 22 at 06:00 until the 23 at 12:00 UTC


220431Z 2206/2312 08005KT P6SM BKN020 TX21/2221Z TN10/2212Z
TEMPO 2210/2214 3SM BR BKN010
FM221600 16008KT P6SM SCT020
FM222000 16012KT P6SM SCT020
FM230300 13005KT P6SM SCT020
MMFR FIR / North America



MET'MAP, your aeronautical weather chart ! - Copyright ORBIFLY December 2007 - Disclaimer

ORBIFLY MET'MAP TEAM :

Programming & Development : Alexandra Zaïnal
Concept & Development : Baudouin d'Aumeries
Co-Development & Prog : Marc-Olivier Méhu
Technical & hardware support : Manuel Goepfert

Contact : metmap@orbifly.com




SOURCES & CREDITS :

   NOAA       Earth
Advisory